Terminal Aerodrome Forecast
Issued by NWS Wakefield, VA

Home | Current Version | Previous Version | Text Only | Print | Product List | Glossary On
Versions: 1 2 3 4 5 6 7 8 9 10 11 12 13 14 15 16 17 18
000
FTUS41 KAKQ 271700
TAFORF
TAF
KORF 271739Z 2718/2818 31004KT P6SM SCT025 OVC040
      TEMPO 2718/2720 5SM -RA BR BKN025
     FM272100 35009KT P6SM BKN050
     FM280800 33010G18KT P6SM SKC=

USA.gov is the U.S. government's official web portal to all federal, state and local government web resources and services.